createdAt,value
2019-03-21T00:00:00.411Z,24.70
2019-03-21T00:02:30.340Z,27.13
2019-03-21T00:05:00.348Z,18.37
2019-03-21T00:07:30.389Z,16.10
2019-03-21T00:10:32.108Z,18.00
2019-03-21T00:13:02.512Z,17.70
2019-03-21T00:15:48.629Z,16.87
2019-03-21T00:18:19.644Z,15.07
2019-03-21T00:20:49.651Z,16.43
2019-03-21T00:23:19.564Z,18.47
2019-03-21T00:25:49.836Z,17.53
2019-03-21T00:28:19.788Z,45.07
2019-03-21T00:30:49.580Z,19.70
2019-03-21T00:33:19.512Z,20.23
2019-03-21T00:35:49.429Z,23.87
2019-03-21T00:38:19.491Z,20.90
2019-03-21T00:40:49.744Z,19.33
2019-03-21T00:43:19.756Z,19.50
2019-03-21T00:45:49.670Z,19.50
2019-03-21T00:48:21.907Z,19.57
2019-03-21T00:50:51.861Z,20.57
2019-03-21T00:53:21.782Z,17.97
2019-03-21T00:55:56.372Z,17.53
2019-03-21T00:58:26.315Z,18.27
2019-03-21T01:01:03.602Z,18.37
2019-03-21T01:03:33.513Z,20.37
2019-03-21T01:06:03.627Z,17.40
2019-03-21T01:08:33.536Z,17.40
2019-03-21T01:11:03.649Z,17.13
2019-03-21T01:13:38.378Z,17.23
2019-03-21T01:16:08.588Z,16.83
2019-03-21T01:18:45.281Z,20.80
2019-03-21T01:21:15.390Z,21.70
2019-03-21T01:23:45.506Z,21.90
2019-03-21T01:26:18.660Z,23.07
2019-03-21T01:28:48.868Z,18.50
2019-03-21T01:31:18.784Z,16.77
2019-03-21T01:33:49.384Z,18.10
2019-03-21T01:36:22.443Z,18.33
2019-03-21T01:38:52.358Z,17.13
2019-03-21T01:41:22.466Z,17.17
2019-03-21T01:43:53.073Z,20.30
2019-03-21T01:46:27.708Z,19.73
2019-03-21T01:48:58.006Z,20.00
2019-03-21T01:51:27.921Z,20.83
2019-03-21T01:53:58.127Z,20.03
2019-03-21T01:56:30.596Z,20.20
2019-03-21T01:59:00.509Z,19.63
2019-03-21T02:01:30.819Z,18.57
2019-03-21T02:04:00.731Z,20.50
2019-03-21T02:06:31.822Z,19.63
2019-03-21T02:09:01.737Z,20.27
2019-03-21T02:11:31.649Z,20.27
2019-03-21T02:14:01.860Z,20.43
2019-03-21T02:16:31.770Z,20.67
2019-03-21T02:19:02.114Z,19.80
2019-03-21T02:21:32.093Z,20.43
2019-03-21T02:24:02.003Z,22.90
2019-03-21T02:26:32.113Z,19.37
2019-03-21T02:29:02.321Z,21.17
2019-03-21T02:31:32.437Z,18.83
2019-03-21T02:34:02.640Z,20.63
2019-03-21T02:36:32.555Z,20.40
2019-03-21T02:39:03.064Z,19.50
2019-03-21T02:41:33.172Z,19.33
2019-03-21T02:44:03.109Z,17.93
2019-03-21T02:46:33.190Z,17.50
2019-03-21T02:49:03.126Z,17.80
2019-03-21T02:51:33.024Z,19.43
2019-03-21T02:54:03.040Z,16.93
2019-03-21T02:56:32.945Z,16.33
2019-03-21T02:59:03.266Z,18.63
2019-03-21T03:01:33.164Z,15.63
2019-03-21T03:04:03.093Z,18.73
2019-03-21T03:06:32.992Z,16.33
2019-03-21T03:09:03.204Z,15.97
2019-03-21T03:11:33.414Z,14.97
2019-03-21T03:14:04.665Z,16.23
2019-03-21T03:16:34.711Z,14.67
2019-03-21T03:19:04.720Z,14.13
2019-03-21T03:21:34.637Z,14.17
2019-03-21T03:24:05.372Z,14.70
2019-03-21T03:26:35.347Z,15.10
2019-03-21T03:29:05.656Z,13.87
2019-03-21T03:31:35.565Z,21.47
2019-03-21T03:34:05.487Z,21.97
2019-03-21T03:36:35.982Z,23.07
2019-03-21T03:39:08.443Z,33.47
2019-03-21T03:41:38.954Z,29.73
2019-03-21T03:44:09.067Z,38.47
2019-03-21T03:46:38.988Z,40.03
2019-03-21T03:49:09.391Z,38.97
2019-03-21T03:51:39.300Z,37.27
2019-03-21T03:54:09.511Z,34.53
2019-03-21T03:56:39.614Z,31.83
2019-03-21T03:59:10.548Z,30.70
2019-03-21T04:01:40.675Z,20.17
2019-03-21T04:04:11.055Z,19.87
2019-03-21T04:06:40.939Z,19.97
2019-03-21T04:09:11.444Z,19.97
2019-03-21T04:11:41.847Z,18.80
2019-03-21T04:14:11.959Z,19.20
2019-03-21T04:16:41.883Z,19.30
2019-03-21T04:19:11.785Z,17.07
2019-03-21T04:21:41.701Z,18.40
2019-03-21T04:24:11.610Z,20.17
2019-03-21T04:26:41.821Z,16.57
2019-03-21T04:29:11.736Z,18.63
2019-03-21T04:31:41.845Z,18.87
2019-03-21T04:34:12.262Z,18.20
2019-03-21T04:36:42.165Z,15.40
2019-03-21T04:39:12.371Z,14.87
2019-03-21T04:41:45.661Z,14.83
2019-03-21T04:44:15.642Z,13.90
2019-03-21T04:46:45.552Z,14.53
2019-03-21T04:49:15.465Z,15.10
2019-03-21T04:51:45.974Z,13.90
2019-03-21T04:54:15.887Z,14.87
2019-03-21T04:56:46.091Z,16.87
2019-03-21T04:59:16.007Z,16.87
2019-03-21T05:01:45.919Z,16.97
2019-03-21T05:04:15.831Z,18.53
2019-03-21T05:06:45.940Z,18.07
2019-03-21T05:09:18.214Z,16.90
2019-03-21T05:11:48.131Z,16.70
2019-03-21T05:14:18.239Z,16.33
2019-03-21T05:16:48.544Z,18.33
2019-03-21T05:19:18.459Z,17.20
2019-03-21T05:21:48.375Z,18.07
2019-03-21T05:24:18.483Z,18.00
2019-03-21T05:26:48.396Z,17.67
2019-03-21T05:29:18.314Z,16.77
2019-03-21T05:31:48.323Z,16.13
2019-03-21T05:34:18.236Z,20.93
2019-03-21T05:36:50.341Z,25.00
2019-03-21T05:39:19.831Z,23.03
2019-03-21T05:41:49.943Z,21.83
2019-03-21T05:44:30.960Z,20.70
2019-03-21T05:47:01.072Z,18.77
2019-03-21T05:49:31.378Z,19.50
2019-03-21T05:52:01.401Z,22.03
2019-03-21T05:54:31.599Z,20.40
2019-03-21T05:57:01.514Z,32.63
2019-03-21T05:59:31.426Z,30.87
2019-03-21T06:02:01.341Z,25.27
2019-03-21T06:04:31.253Z,23.20
2019-03-21T06:07:17.584Z,21.90
2019-03-21T06:09:47.695Z,18.63
2019-03-21T06:12:17.804Z,21.43
2019-03-21T06:14:58.141Z,24.60
2019-03-21T06:17:28.739Z,21.50
2019-03-21T06:20:20.969Z,19.40
2019-03-21T06:23:22.242Z,27.17
2019-03-21T06:26:05.724Z,30.00
2019-03-21T06:28:35.634Z,25.67
2019-03-21T06:31:05.943Z,26.13
2019-03-21T06:33:35.855Z,24.97
2019-03-21T06:36:06.151Z,25.17
2019-03-21T06:38:36.073Z,22.33
2019-03-21T06:41:05.988Z,17.53
2019-03-21T06:43:36.001Z,22.23
2019-03-21T06:46:05.913Z,19.17
2019-03-21T06:48:36.186Z,20.10
2019-03-21T06:51:07.484Z,18.33
2019-03-21T06:53:37.424Z,20.30
2019-03-21T06:56:07.631Z,19.43
2019-03-21T06:58:37.546Z,15.17
2019-03-21T07:01:07.466Z,19.20
2019-03-21T07:03:37.372Z,15.07
2019-03-21T07:06:07.529Z,18.27
2019-03-21T07:08:37.500Z,17.27
2019-03-21T07:11:07.412Z,15.77
2019-03-21T07:13:37.517Z,17.27
2019-03-21T07:16:09.395Z,14.90
2019-03-21T07:18:39.408Z,15.60
2019-03-21T07:21:09.366Z,15.67
2019-03-21T07:23:39.334Z,13.87
2019-03-21T07:26:09.248Z,15.70
2019-03-21T07:28:39.161Z,16.87
2019-03-21T07:31:11.299Z,17.00
2019-03-21T07:33:40.875Z,16.40
2019-03-21T07:36:10.768Z,15.53
2019-03-21T07:38:40.683Z,14.13
2019-03-21T07:41:10.794Z,12.73
2019-03-21T07:43:40.708Z,15.63
2019-03-21T07:46:10.786Z,17.20
2019-03-21T07:48:40.729Z,16.40
2019-03-21T07:51:11.234Z,14.43
2019-03-21T07:53:41.442Z,13.20
2019-03-21T07:56:11.649Z,14.67
2019-03-21T07:58:41.856Z,16.37
2019-03-21T08:01:11.773Z,12.77
2019-03-21T08:03:41.685Z,11.33
2019-03-21T08:06:11.696Z,12.13
2019-03-21T08:08:41.609Z,13.73
2019-03-21T08:11:11.620Z,9.93
2019-03-21T08:13:41.537Z,19.27
2019-03-21T08:16:11.448Z,14.37
2019-03-21T08:18:41.494Z,11.43
2019-03-21T08:21:11.471Z,10.87
2019-03-21T08:23:41.891Z,11.03
2019-03-21T08:26:11.984Z,7.83
2019-03-21T08:28:41.900Z,12.10
2019-03-21T08:31:14.761Z,9.17
2019-03-21T08:33:45.369Z,9.53
2019-03-21T08:36:15.379Z,10.23
2019-03-21T08:38:45.497Z,10.37
2019-03-21T08:41:15.794Z,9.57
2019-03-21T08:43:45.591Z,10.07
2019-03-21T08:46:16.504Z,10.77
2019-03-21T08:48:46.430Z,10.67
2019-03-21T08:51:16.920Z,8.13
2019-03-21T08:53:47.037Z,11.33
2019-03-21T08:56:17.397Z,10.27
2019-03-21T08:58:47.840Z,10.37
2019-03-21T09:01:17.758Z,11.87
2019-03-21T09:03:47.863Z,9.73
2019-03-21T09:06:17.786Z,9.50
2019-03-21T09:08:47.574Z,8.37
2019-03-21T09:11:17.900Z,9.20
2019-03-21T09:13:47.814Z,9.70
2019-03-21T09:16:18.022Z,8.33
2019-03-21T09:18:48.034Z,8.97
2019-03-21T09:21:20.019Z,10.00
2019-03-21T09:23:49.738Z,9.97
2019-03-21T09:26:19.647Z,8.37
2019-03-21T09:28:49.441Z,8.27
2019-03-21T09:31:19.573Z,9.53
2019-03-21T09:33:50.565Z,9.77
2019-03-21T09:36:20.564Z,12.13
2019-03-21T09:38:50.985Z,10.70
2019-03-21T09:41:20.903Z,11.43
2019-03-21T09:43:50.813Z,8.63
2019-03-21T09:46:20.914Z,7.60
2019-03-21T09:48:50.829Z,19.07
2019-03-21T09:51:30.530Z,12.73
2019-03-21T09:53:52.429Z,8.87
2019-03-21T09:56:24.064Z,7.23
2019-03-21T09:58:54.220Z,10.77
2019-03-21T10:01:24.132Z,9.30
2019-03-21T10:03:54.149Z,6.77
2019-03-21T10:06:24.158Z,8.67
2019-03-21T10:08:54.069Z,10.20
2019-03-21T10:11:24.277Z,9.63
2019-03-21T10:13:54.386Z,7.17
2019-03-21T10:16:24.299Z,9.90
2019-03-21T10:18:54.214Z,9.63
2019-03-21T10:21:24.831Z,10.07
2019-03-21T10:23:56.112Z,10.13
2019-03-21T10:26:26.020Z,7.87
2019-03-21T10:28:56.889Z,6.77
2019-03-21T10:31:26.927Z,9.60
2019-03-21T10:33:56.843Z,7.80
2019-03-21T10:36:26.753Z,7.83
2019-03-21T10:38:57.876Z,8.83
2019-03-21T10:41:28.743Z,10.50
2019-03-21T10:43:59.919Z,7.17
2019-03-21T10:46:30.143Z,10.47
2019-03-21T10:49:00.069Z,9.00
2019-03-21T10:51:30.067Z,8.20
2019-03-21T10:53:59.982Z,9.53
2019-03-21T10:56:29.894Z,9.63
2019-03-21T10:58:59.808Z,8.03
2019-03-21T11:01:29.929Z,9.13
2019-03-21T11:03:59.836Z,8.47
2019-03-21T11:06:29.744Z,7.20
2019-03-21T11:08:59.951Z,7.00
2019-03-21T11:11:32.381Z,6.03
2019-03-21T11:14:02.436Z,8.87
2019-03-21T11:16:32.351Z,7.10
2019-03-21T11:19:02.362Z,8.07
2019-03-21T11:21:32.275Z,7.23
2019-03-21T11:24:02.188Z,6.70
2019-03-21T11:26:32.196Z,8.00
2019-03-21T11:29:02.118Z,6.80
2019-03-21T11:31:32.219Z,8.37
2019-03-21T11:34:02.332Z,9.63
2019-03-21T11:36:38.276Z,7.70
2019-03-21T11:39:05.695Z,8.13
2019-03-21T11:41:35.711Z,7.57
2019-03-21T11:44:06.014Z,8.07
2019-03-21T11:46:35.933Z,5.97
2019-03-21T11:49:05.947Z,7.50
2019-03-21T11:51:35.862Z,7.47
2019-03-21T11:54:05.864Z,10.17
2019-03-21T11:56:35.784Z,6.63
2019-03-21T11:59:06.085Z,5.57
2019-03-21T12:01:36.199Z,8.80
2019-03-21T12:04:06.500Z,5.23
2019-03-21T12:06:36.413Z,7.20
2019-03-21T12:09:08.590Z,6.47
2019-03-21T12:11:39.093Z,5.93
2019-03-21T12:14:09.103Z,8.47
2019-03-21T12:16:39.606Z,8.40
2019-03-21T12:19:09.528Z,7.87
2019-03-21T12:21:39.440Z,6.80
2019-03-21T12:24:09.349Z,7.70
2019-03-21T12:26:39.262Z,8.87
2019-03-21T12:29:09.174Z,8.10
2019-03-21T12:31:39.087Z,8.23
2019-03-21T12:34:09.001Z,6.20
2019-03-21T12:36:38.914Z,8.53
2019-03-21T12:39:09.943Z,7.67
2019-03-21T12:41:39.921Z,6.10
2019-03-21T12:44:10.036Z,7.47
2019-03-21T12:46:40.141Z,6.70
2019-03-21T12:49:10.054Z,7.37
2019-03-21T12:51:41.032Z,8.33
2019-03-21T12:54:11.487Z,7.00
2019-03-21T12:56:41.466Z,6.93
2019-03-21T12:59:11.378Z,6.90
2019-03-21T13:01:41.292Z,7.60
2019-03-21T13:04:11.203Z,7.50
2019-03-21T13:06:41.216Z,8.83
2019-03-21T13:09:11.129Z,7.57
2019-03-21T13:11:41.242Z,10.60
2019-03-21T13:14:11.449Z,8.10
2019-03-21T13:16:41.558Z,7.13
2019-03-21T13:19:11.569Z,7.10
2019-03-21T13:21:41.680Z,8.87
2019-03-21T13:24:11.593Z,7.20
2019-03-21T13:26:41.703Z,7.83
2019-03-21T13:29:11.617Z,7.07
2019-03-21T13:31:41.533Z,6.40
2019-03-21T13:34:11.450Z,7.83
2019-03-21T13:36:41.554Z,8.33
2019-03-21T13:39:11.570Z,7.87
2019-03-21T13:41:41.482Z,6.90
2019-03-21T13:44:11.687Z,7.53
2019-03-21T13:46:41.599Z,6.63
2019-03-21T13:49:11.514Z,6.67
2019-03-21T13:51:42.017Z,6.37
2019-03-21T13:54:11.931Z,5.80
2019-03-21T13:56:41.844Z,5.87
2019-03-21T13:59:11.757Z,6.67
2019-03-21T14:01:41.669Z,5.50
2019-03-21T14:04:11.585Z,5.90
2019-03-21T14:06:41.692Z,5.70
2019-03-21T14:09:11.608Z,7.43
2019-03-21T14:11:41.521Z,7.73
2019-03-21T14:14:11.433Z,5.47
2019-03-21T14:16:41.369Z,5.40
2019-03-21T14:19:11.456Z,5.60
2019-03-21T14:21:41.253Z,5.77
2019-03-21T14:24:11.382Z,6.87
2019-03-21T14:26:41.299Z,6.47
2019-03-21T14:29:12.831Z,5.73
2019-03-21T14:31:43.588Z,5.40
2019-03-21T14:34:13.496Z,5.50
2019-03-21T14:36:43.898Z,4.60
2019-03-21T14:39:13.811Z,6.40
2019-03-21T14:41:43.724Z,5.67
2019-03-21T14:44:13.845Z,5.40
2019-03-21T14:46:43.749Z,5.13
2019-03-21T14:49:13.666Z,5.70
2019-03-21T14:51:43.573Z,4.70
2019-03-21T14:54:13.785Z,6.13
2019-03-21T14:56:43.697Z,5.60
2019-03-21T14:59:13.611Z,6.80
2019-03-21T15:01:43.523Z,4.37
2019-03-21T15:04:13.884Z,6.83
2019-03-21T15:06:44.233Z,6.90
2019-03-21T15:09:14.152Z,6.40
2019-03-21T15:11:44.164Z,7.70
2019-03-21T15:14:14.215Z,5.37
2019-03-21T15:16:44.184Z,5.47
2019-03-21T15:19:14.296Z,4.47
2019-03-21T15:21:44.220Z,5.47
2019-03-21T15:24:14.219Z,4.37
2019-03-21T15:26:44.130Z,5.23
2019-03-21T15:29:14.241Z,5.33
2019-03-21T15:31:44.155Z,5.70
2019-03-21T15:34:14.167Z,5.27
2019-03-21T15:36:44.205Z,6.13
2019-03-21T15:39:14.191Z,5.27
2019-03-21T15:41:44.111Z,5.47
2019-03-21T15:44:14.016Z,6.17
2019-03-21T15:46:44.028Z,6.90
2019-03-21T15:49:13.945Z,5.03
2019-03-21T15:51:43.855Z,6.93
2019-03-21T15:54:13.768Z,7.17
2019-03-21T15:56:43.684Z,6.67
2019-03-21T15:59:13.602Z,10.60
2019-03-21T16:01:43.612Z,4.90
2019-03-21T16:04:13.619Z,5.83
2019-03-21T16:06:43.536Z,7.53
2019-03-21T16:09:13.839Z,5.70
2019-03-21T16:11:43.751Z,4.93
2019-03-21T16:14:13.664Z,8.13
2019-03-21T16:16:43.462Z,7.27
2019-03-21T16:19:13.687Z,9.13
2019-03-21T16:21:43.602Z,7.50
2019-03-21T16:24:13.519Z,7.07
2019-03-21T16:26:43.626Z,10.47
2019-03-21T16:29:13.537Z,8.23
2019-03-21T16:31:44.270Z,7.67
2019-03-21T16:34:15.428Z,8.60
2019-03-21T16:36:45.441Z,8.27
2019-03-21T16:39:15.753Z,8.47
2019-03-21T16:41:47.081Z,10.20
2019-03-21T16:44:18.667Z,7.60
2019-03-21T16:46:48.634Z,7.60
2019-03-21T16:49:18.545Z,8.57
2019-03-21T16:51:48.461Z,8.03
2019-03-21T16:54:18.738Z,6.50
2019-03-21T16:56:49.401Z,8.57
2019-03-21T16:59:19.378Z,8.07
2019-03-21T17:01:49.391Z,8.50
2019-03-21T17:04:19.304Z,7.60
2019-03-21T17:06:49.322Z,9.60
2019-03-21T17:09:19.229Z,7.77
2019-03-21T17:11:49.342Z,7.07
2019-03-21T17:14:19.469Z,7.47
2019-03-21T17:16:49.544Z,9.83
2019-03-21T17:19:19.480Z,9.17
2019-03-21T17:21:49.400Z,8.37
2019-03-21T17:24:28.635Z,8.93
2019-03-21T17:26:51.278Z,7.77
2019-03-21T17:29:21.193Z,21.03
2019-03-21T17:31:51.106Z,16.40
2019-03-21T17:34:21.020Z,16.23
2019-03-21T17:36:50.932Z,15.20
2019-03-21T17:39:21.140Z,11.77
2019-03-21T17:41:51.056Z,11.33
2019-03-21T17:44:21.265Z,11.13
2019-03-21T17:46:51.368Z,13.03
2019-03-21T17:49:21.580Z,10.67
2019-03-21T17:51:51.600Z,9.33
2019-03-21T17:54:21.800Z,8.10
2019-03-21T17:56:51.714Z,12.47
2019-03-21T17:59:21.627Z,20.17
2019-03-21T18:01:52.625Z,12.77
2019-03-21T18:04:22.830Z,14.00
2019-03-21T18:06:52.843Z,15.17
2019-03-21T18:09:22.754Z,14.03
2019-03-21T18:11:52.688Z,13.90
2019-03-21T18:14:22.894Z,9.67
2019-03-21T18:16:52.886Z,9.57
2019-03-21T18:19:22.803Z,8.97
2019-03-21T18:21:53.006Z,7.33
2019-03-21T18:24:22.925Z,9.77
2019-03-21T18:26:52.933Z,8.50
2019-03-21T18:29:22.847Z,7.37
2019-03-21T18:31:52.762Z,8.23
2019-03-21T18:34:22.868Z,7.77
2019-03-21T18:36:52.783Z,7.53
2019-03-21T18:39:22.794Z,8.50
2019-03-21T18:41:52.709Z,8.47
2019-03-21T18:44:22.819Z,8.40
2019-03-21T18:46:52.830Z,9.23
2019-03-21T18:49:22.844Z,9.13
2019-03-21T18:51:52.756Z,9.80
2019-03-21T18:54:22.783Z,8.50
2019-03-21T18:56:53.076Z,8.13
2019-03-21T18:59:24.081Z,7.93
2019-03-21T19:01:58.666Z,8.17
2019-03-21T19:04:28.089Z,9.83
2019-03-21T19:06:58.654Z,11.47
2019-03-21T19:09:28.635Z,9.10
2019-03-21T19:11:58.549Z,13.50
2019-03-21T19:14:28.463Z,12.87
2019-03-21T19:16:58.381Z,9.73
2019-03-21T19:19:28.785Z,10.70
2019-03-21T19:21:59.089Z,12.80
2019-03-21T19:24:29.005Z,10.20
2019-03-21T19:26:59.505Z,10.50
2019-03-21T19:29:29.419Z,10.33
2019-03-21T19:31:59.330Z,9.90
2019-03-21T19:34:29.345Z,9.87
2019-03-21T19:36:59.675Z,11.93
2019-03-21T19:39:29.663Z,12.33
2019-03-21T19:41:59.459Z,11.13
2019-03-21T19:44:29.488Z,11.37
2019-03-21T19:47:01.333Z,11.57
2019-03-21T19:49:30.987Z,13.57
2019-03-21T19:52:00.903Z,13.17
2019-03-21T19:54:30.814Z,20.07
2019-03-21T19:57:01.796Z,42.23
2019-03-21T19:59:33.395Z,38.10
2019-03-21T20:02:03.411Z,35.60
2019-03-21T20:04:33.516Z,33.83
2019-03-21T20:07:04.497Z,31.13
2019-03-21T20:09:35.117Z,26.23
2019-03-21T20:12:05.089Z,27.60
2019-03-21T20:14:35.133Z,31.53
2019-03-21T20:17:05.344Z,31.50
2019-03-21T20:19:35.256Z,43.17
2019-03-21T20:22:05.176Z,56.90
2019-03-21T20:24:35.283Z,51.20
2019-03-21T20:27:05.488Z,49.30
2019-03-21T20:29:35.403Z,54.53
2019-03-21T20:32:05.510Z,48.23
2019-03-21T20:34:35.425Z,53.17
2019-03-21T20:37:05.684Z,47.27
2019-03-21T20:39:35.660Z,50.23
2019-03-21T20:42:06.157Z,41.83
2019-03-21T20:44:35.978Z,48.13
2019-03-21T20:47:05.875Z,45.93
2019-03-21T20:49:35.986Z,47.40
2019-03-21T20:52:05.900Z,51.53
2019-03-21T20:54:36.010Z,46.93
2019-03-21T20:57:05.922Z,49.80
2019-03-21T20:59:36.134Z,50.13
2019-03-21T21:02:06.036Z,50.47
2019-03-21T21:04:36.109Z,57.17
2019-03-21T21:07:06.071Z,59.07
2019-03-21T21:09:37.238Z,55.23
2019-03-21T21:12:07.172Z,56.80
2019-03-21T21:14:37.283Z,64.80
2019-03-21T21:17:07.198Z,60.20
2019-03-21T21:19:37.112Z,50.20
2019-03-21T21:22:07.022Z,49.03
2019-03-21T21:24:37.228Z,49.20
2019-03-21T21:27:07.141Z,47.70
2019-03-21T21:29:37.547Z,47.97
2019-03-21T21:32:07.473Z,47.30
2019-03-21T21:34:37.621Z,49.37
2019-03-21T21:37:08.567Z,41.87
2019-03-21T21:39:38.476Z,44.53
2019-03-21T21:42:08.490Z,44.47
2019-03-21T21:44:38.905Z,42.40
2019-03-21T21:47:09.802Z,45.13
2019-03-21T21:49:40.018Z,55.23
2019-03-21T21:52:10.207Z,45.77
2019-03-21T21:54:40.467Z,45.27
2019-03-21T21:57:10.428Z,40.20
2019-03-21T21:59:40.341Z,41.73
2019-03-21T22:02:10.462Z,42.30
2019-03-21T22:04:40.366Z,41.37
2019-03-21T22:07:10.768Z,41.03
2019-03-21T22:09:40.780Z,43.73
2019-03-21T22:12:10.700Z,65.37
2019-03-21T22:14:40.612Z,48.13
2019-03-21T22:17:10.719Z,46.20
2019-03-21T22:19:41.673Z,41.73
2019-03-21T22:22:12.499Z,43.40
2019-03-21T22:24:43.255Z,55.60
2019-03-21T22:27:13.516Z,50.87
2019-03-21T22:29:43.528Z,53.63
2019-03-21T22:32:13.440Z,47.90
2019-03-21T22:34:43.359Z,56.00
2019-03-21T22:37:13.464Z,58.93
2019-03-21T22:39:46.150Z,67.10
2019-03-21T22:42:16.534Z,62.83
2019-03-21T22:44:46.890Z,53.43
2019-03-21T22:47:17.164Z,52.23
2019-03-21T22:49:47.358Z,47.13
2019-03-21T22:52:17.272Z,47.57
2019-03-21T22:54:47.183Z,49.63
2019-03-21T22:57:17.098Z,51.43
2019-03-21T22:59:47.009Z,56.17
2019-03-21T23:02:18.442Z,51.33
2019-03-21T23:04:49.677Z,51.30
2019-03-21T23:07:19.605Z,52.50
2019-03-21T23:09:49.965Z,52.47
2019-03-21T23:12:20.021Z,48.27
2019-03-21T23:14:50.546Z,50.90
2019-03-21T23:17:21.131Z,47.87
2019-03-21T23:19:51.473Z,47.27
2019-03-21T23:22:22.134Z,51.70
2019-03-21T23:24:52.239Z,50.03
2019-03-21T23:27:22.349Z,51.33
2019-03-21T23:29:52.807Z,52.97
2019-03-21T23:32:23.457Z,54.80
2019-03-21T23:34:53.976Z,66.13
2019-03-21T23:37:23.869Z,55.47
2019-03-21T23:39:54.200Z,55.63
2019-03-21T23:42:24.192Z,46.77
2019-03-21T23:44:54.201Z,46.53
2019-03-21T23:47:24.116Z,38.47
2019-03-21T23:49:54.123Z,39.63
2019-03-21T23:52:24.042Z,35.50
2019-03-21T23:54:53.952Z,39.97
2019-03-21T23:57:23.866Z,34.50
2019-03-21T23:59:54.269Z,36.43
